createdAt,value
2019-01-28T00:00:01.112Z,26.60
2019-01-28T00:01:00.909Z,26.40
2019-01-28T00:02:01.098Z,28.70
2019-01-28T00:03:01.147Z,24.90
2019-01-28T00:04:01.115Z,27.70
2019-01-28T00:05:01.082Z,27.80
2019-01-28T00:06:01.101Z,27.00
2019-01-28T00:07:00.833Z,22.70
2019-01-28T00:08:01.053Z,30.50
2019-01-28T00:09:00.854Z,28.40
2019-01-28T00:10:00.843Z,26.70
2019-01-28T00:11:01.036Z,23.40
2019-01-28T00:12:01.046Z,26.70
2019-01-28T00:13:00.813Z,24.50
2019-01-28T00:14:00.783Z,22.30
2019-01-28T00:15:01.038Z,26.50
2019-01-28T00:16:00.768Z,23.40
2019-01-28T00:17:00.800Z,26.60
2019-01-28T00:18:00.744Z,24.20
2019-01-28T00:19:00.996Z,24.20
2019-01-28T00:20:00.788Z,24.90
2019-01-28T00:21:01.012Z,20.60
2019-01-28T00:22:00.728Z,22.10
2019-01-28T00:23:00.996Z,27.00
2019-01-28T00:24:00.990Z,26.60
2019-01-28T00:25:00.998Z,28.30
2019-01-28T00:26:00.966Z,27.80
2019-01-28T00:27:01.043Z,27.80
2019-01-28T00:28:01.074Z,25.20
2019-01-28T00:29:01.099Z,30.00
2019-01-28T00:30:01.089Z,29.70
2019-01-28T00:31:00.703Z,29.90
2019-01-28T00:32:00.709Z,31.60
2019-01-28T00:33:00.697Z,28.00
2019-01-28T00:34:01.025Z,27.90
2019-01-28T00:35:01.031Z,28.30
2019-01-28T00:36:00.628Z,25.20
2019-01-28T00:37:00.652Z,28.40
2019-01-28T00:38:00.880Z,24.80
2019-01-28T00:39:00.631Z,23.90
2019-01-28T00:40:00.604Z,33.30
2019-01-28T00:41:00.593Z,25.10
2019-01-28T00:42:00.599Z,24.40
2019-01-28T00:43:00.858Z,26.90
2019-01-28T00:44:00.575Z,26.10
2019-01-28T00:45:00.833Z,29.80
2019-01-28T00:46:00.596Z,27.10
2019-01-28T00:47:00.832Z,28.50
2019-01-28T00:48:00.542Z,25.90
2019-01-28T00:49:00.789Z,24.20
2019-01-28T00:50:00.535Z,31.60
2019-01-28T00:51:00.768Z,25.60
2019-01-28T00:52:00.815Z,27.30
2019-01-28T00:53:00.777Z,27.80
2019-01-28T00:54:00.538Z,24.20
2019-01-28T00:55:00.736Z,24.30
2019-01-28T00:56:00.735Z,27.00
2019-01-28T00:57:00.727Z,29.90
2019-01-28T00:58:00.778Z,30.90
2019-01-28T00:59:00.767Z,27.70
2019-01-28T01:00:00.460Z,31.20
2019-01-28T01:01:00.742Z,25.50
2019-01-28T01:02:00.493Z,30.60
2019-01-28T01:03:00.703Z,29.60
2019-01-28T01:04:00.473Z,36.40
2019-01-28T01:05:00.695Z,35.20
2019-01-28T01:06:00.461Z,39.90
2019-01-28T01:07:00.417Z,32.90
2019-01-28T01:08:00.683Z,36.70
2019-01-28T01:09:00.642Z,37.30
2019-01-28T01:10:00.420Z,36.90
2019-01-28T01:11:00.652Z,37.80
2019-01-28T01:12:00.671Z,40.30
2019-01-28T01:13:00.409Z,37.10
2019-01-28T01:14:00.370Z,44.70
2019-01-28T01:15:00.601Z,41.70
2019-01-28T01:16:00.590Z,43.60
2019-01-28T01:17:00.352Z,47.20
2019-01-28T01:18:00.603Z,48.30
2019-01-28T01:19:00.626Z,49.40
2019-01-28T01:20:00.328Z,46.30
2019-01-28T01:21:00.360Z,43.40
2019-01-28T01:22:00.323Z,42.80
2019-01-28T01:23:00.349Z,40.30
2019-01-28T01:24:00.295Z,42.30
2019-01-28T01:25:00.371Z,40.60
2019-01-28T01:26:00.575Z,49.10
2019-01-28T01:27:00.285Z,45.60
2019-01-28T01:28:00.507Z,47.20
2019-01-28T01:29:00.313Z,42.20
2019-01-28T01:30:00.547Z,45.30
2019-01-28T01:31:00.298Z,36.90
2019-01-28T01:32:00.511Z,38.50
2019-01-28T01:33:00.526Z,40.70
2019-01-28T01:34:00.475Z,38.80
2019-01-28T01:35:00.496Z,34.40
2019-01-28T01:36:00.258Z,35.50
2019-01-28T01:37:00.244Z,32.30
2019-01-28T01:38:00.469Z,33.20
2019-01-28T01:39:00.455Z,33.50
2019-01-28T01:40:00.209Z,38.90
2019-01-28T01:41:00.445Z,34.10
2019-01-28T01:42:00.175Z,35.40
2019-01-28T01:43:00.465Z,32.40
2019-01-28T01:44:00.400Z,34.40
2019-01-28T01:45:00.248Z,33.10
2019-01-28T01:46:00.419Z,31.50
2019-01-28T01:47:00.406Z,32.40
2019-01-28T01:48:00.175Z,28.40
2019-01-28T01:49:00.395Z,35.20
2019-01-28T01:50:00.182Z,31.40
2019-01-28T01:51:00.119Z,30.30
2019-01-28T01:52:00.120Z,29.50
2019-01-28T01:53:00.132Z,33.90
2019-01-28T01:54:00.320Z,35.80
2019-01-28T01:55:00.123Z,31.60
2019-01-28T01:56:00.093Z,29.60
2019-01-28T01:57:00.370Z,31.50
2019-01-28T01:58:00.097Z,31.50
2019-01-28T01:59:00.343Z,32.10
2019-01-28T02:00:00.333Z,32.80
2019-01-28T02:01:00.050Z,35.00
2019-01-28T02:02:00.329Z,33.90
2019-01-28T02:03:00.066Z,36.20
2019-01-28T02:04:00.287Z,34.60
2019-01-28T02:05:00.283Z,35.90
2019-01-28T02:06:00.256Z,37.20
2019-01-28T02:07:00.050Z,34.50
2019-01-28T02:08:00.258Z,38.10
2019-01-28T02:09:00.280Z,40.50
2019-01-28T02:10:00.273Z,38.10
2019-01-28T02:11:00.227Z,35.90
2019-01-28T02:11:59.964Z,36.10
2019-01-28T02:12:59.972Z,39.00
2019-01-28T02:14:00.213Z,36.60
2019-01-28T02:15:00.248Z,41.00
2019-01-28T02:15:59.978Z,35.00
2019-01-28T02:17:00.205Z,42.20
2019-01-28T02:18:00.229Z,36.00
2019-01-28T02:18:59.925Z,40.40
2019-01-28T02:20:00.269Z,37.60
2019-01-28T02:21:00.190Z,38.40
2019-01-28T02:22:00.150Z,37.80
2019-01-28T02:23:00.150Z,42.00
2019-01-28T02:24:00.163Z,38.10
2019-01-28T02:25:00.250Z,38.40
2019-01-28T02:26:00.166Z,37.00
2019-01-28T02:26:59.902Z,35.00
2019-01-28T02:27:59.910Z,42.20
2019-01-28T02:29:00.096Z,35.10
2019-01-28T02:30:00.318Z,35.80
2019-01-28T02:30:59.838Z,34.00
2019-01-28T02:31:59.839Z,33.10
2019-01-28T02:32:59.857Z,37.10
2019-01-28T02:33:59.834Z,37.30
2019-01-28T02:34:59.862Z,31.20
2019-01-28T02:35:59.818Z,35.60
2019-01-28T02:36:59.811Z,33.50
2019-01-28T02:37:59.835Z,32.00
2019-01-28T02:39:00.070Z,31.80
2019-01-28T02:40:00.042Z,38.30
2019-01-28T02:41:00.020Z,32.40
2019-01-28T02:42:00.006Z,36.40
2019-01-28T02:43:00.020Z,31.10
2019-01-28T02:43:59.743Z,31.80
2019-01-28T02:44:59.747Z,33.90
2019-01-28T02:45:59.783Z,33.10
2019-01-28T02:46:59.977Z,28.20
2019-01-28T02:47:59.724Z,28.30
2019-01-28T02:49:00.068Z,36.80
2019-01-28T02:50:00.239Z,33.00
2019-01-28T02:51:00.085Z,34.20
2019-01-28T02:51:59.734Z,32.40
2019-01-28T02:53:00.118Z,30.80
2019-01-28T02:54:00.061Z,30.70
2019-01-28T02:55:00.142Z,29.10
2019-01-28T02:55:59.987Z,30.00
2019-01-28T02:56:59.682Z,29.50
2019-01-28T02:57:59.942Z,31.20
2019-01-28T02:58:59.964Z,28.50
2019-01-28T02:59:59.959Z,32.00
2019-01-28T03:00:59.909Z,30.40
2019-01-28T03:01:59.671Z,34.10
2019-01-28T03:02:59.916Z,30.10
2019-01-28T03:03:59.625Z,31.10
2019-01-28T03:04:59.878Z,28.30
2019-01-28T03:05:59.860Z,31.20
2019-01-28T03:06:59.899Z,23.40
2019-01-28T03:07:59.631Z,24.80
2019-01-28T03:08:59.843Z,28.70
2019-01-28T03:09:59.825Z,29.30
2019-01-28T03:10:59.836Z,25.30
2019-01-28T03:11:59.841Z,24.60
2019-01-28T03:12:59.796Z,27.50
2019-01-28T03:13:59.813Z,25.60
2019-01-28T03:14:59.823Z,31.20
2019-01-28T03:15:59.545Z,28.20
2019-01-28T03:16:59.828Z,29.40
2019-01-28T03:17:59.534Z,28.90
2019-01-28T03:18:59.565Z,25.50
2019-01-28T03:19:59.553Z,35.00
2019-01-28T03:20:59.499Z,26.20
2019-01-28T03:22:00.229Z,29.50
2019-01-28T03:22:59.501Z,30.50
2019-01-28T03:23:59.485Z,28.50
2019-01-28T03:24:59.751Z,28.00
2019-01-28T03:25:59.735Z,27.40
2019-01-28T03:26:59.496Z,25.80
2019-01-28T03:27:59.754Z,26.60
2019-01-28T03:28:59.710Z,29.00
2019-01-28T03:29:59.716Z,27.40
2019-01-28T03:30:59.692Z,26.40
2019-01-28T03:31:59.439Z,26.20
2019-01-28T03:32:59.452Z,23.80
2019-01-28T03:33:59.446Z,23.60
2019-01-28T03:34:59.678Z,26.00
2019-01-28T03:35:59.675Z,28.50
2019-01-28T03:36:59.665Z,22.10
2019-01-28T03:37:59.775Z,23.70
2019-01-28T03:38:59.379Z,25.00
2019-01-28T03:39:59.789Z,25.10
2019-01-28T03:40:59.395Z,26.90
2019-01-28T03:41:59.365Z,25.10
2019-01-28T03:42:59.378Z,24.90
2019-01-28T03:43:59.378Z,24.70
2019-01-28T03:44:59.725Z,25.10
2019-01-28T03:45:59.357Z,24.70
2019-01-28T03:46:59.600Z,26.50
2019-01-28T03:47:59.618Z,25.00
2019-01-28T03:48:59.605Z,26.60
2019-01-28T03:49:59.309Z,26.60
2019-01-28T03:50:59.549Z,21.00
2019-01-28T03:51:59.567Z,24.40
2019-01-28T03:52:59.572Z,24.80
2019-01-28T03:53:59.515Z,23.10
2019-01-28T03:54:59.306Z,23.80
2019-01-28T03:55:59.524Z,26.30
2019-01-28T03:56:59.296Z,23.90
2019-01-28T03:57:59.546Z,25.90
2019-01-28T03:58:59.538Z,23.00
2019-01-28T03:59:59.234Z,25.20
2019-01-28T04:00:59.625Z,25.00
2019-01-28T04:01:59.272Z,27.20
2019-01-28T04:02:59.264Z,27.80
2019-01-28T04:03:59.221Z,22.90
2019-01-28T04:04:59.614Z,23.30
2019-01-28T04:05:59.203Z,20.90
2019-01-28T04:06:59.565Z,23.20
2019-01-28T04:07:59.539Z,20.60
2019-01-28T04:08:59.589Z,20.80
2019-01-28T04:09:59.589Z,21.80
2019-01-28T04:10:59.465Z,23.40
2019-01-28T04:11:59.162Z,20.60
2019-01-28T04:12:59.145Z,20.80
2019-01-28T04:13:59.141Z,19.90
2019-01-28T04:14:59.407Z,22.50
2019-01-28T04:15:59.405Z,21.80
2019-01-28T04:16:59.427Z,21.50
2019-01-28T04:17:59.137Z,20.10
2019-01-28T04:18:59.101Z,24.40
2019-01-28T04:19:59.116Z,25.00
2019-01-28T04:20:59.090Z,23.40
2019-01-28T04:21:59.084Z,22.60
2019-01-28T04:22:59.356Z,18.70
2019-01-28T04:23:59.106Z,20.60
2019-01-28T04:24:59.357Z,26.20
2019-01-28T04:25:59.362Z,20.60
2019-01-28T04:26:59.057Z,22.30
2019-01-28T04:27:59.085Z,22.10
2019-01-28T04:28:59.289Z,19.70
2019-01-28T04:29:59.302Z,21.90
2019-01-28T04:30:59.293Z,24.90
2019-01-28T04:31:59.021Z,22.10
2019-01-28T04:32:59.318Z,21.30
2019-01-28T04:33:59.265Z,19.60
2019-01-28T04:34:58.996Z,20.30
2019-01-28T04:35:59.023Z,19.70
2019-01-28T04:36:59.019Z,23.80
2019-01-28T04:37:59.208Z,18.70
2019-01-28T04:38:59.008Z,21.40
2019-01-28T04:39:59.239Z,18.40
2019-01-28T04:40:58.985Z,21.00
2019-01-28T04:42:58.950Z,18.90
2019-01-28T04:43:59.219Z,22.40
2019-01-28T04:44:59.209Z,19.30
2019-01-28T04:45:58.949Z,23.10
2019-01-28T04:46:58.908Z,20.00
2019-01-28T04:47:58.901Z,18.80
2019-01-28T04:48:59.147Z,20.50
2019-01-28T04:49:58.891Z,20.10
2019-01-28T04:51:59.256Z,19.00
2019-01-28T04:52:58.882Z,20.60
2019-01-28T04:54:00.117Z,21.30
2019-01-28T04:54:58.862Z,21.00
2019-01-28T04:55:59.202Z,18.50
2019-01-28T04:56:58.847Z,23.40
2019-01-28T04:57:59.132Z,19.60
2019-01-28T04:58:59.117Z,20.50
2019-01-28T04:59:59.089Z,25.10
2019-01-28T05:01:58.849Z,19.70
2019-01-28T05:02:59.086Z,22.90
2019-01-28T05:03:59.072Z,22.10
2019-01-28T05:04:59.075Z,20.10
2019-01-28T05:05:58.787Z,21.60
2019-01-28T05:06:59.030Z,19.80
2019-01-28T05:07:58.773Z,20.40
2019-01-28T05:08:59.030Z,18.50
2019-01-28T05:09:58.797Z,20.10
2019-01-28T05:10:58.785Z,22.20
2019-01-28T05:11:59.023Z,20.90
2019-01-28T05:12:58.772Z,19.80
2019-01-28T05:13:59.010Z,20.70
2019-01-28T05:14:58.973Z,16.90
2019-01-28T05:15:58.944Z,16.60
2019-01-28T05:16:59.019Z,17.70
2019-01-28T05:17:59.686Z,21.00
2019-01-28T05:18:59.037Z,17.30
2019-01-28T05:19:58.733Z,19.10
2019-01-28T05:20:58.755Z,21.10
2019-01-28T05:21:58.940Z,18.20
2019-01-28T05:23:20.584Z,21.50
2019-01-28T05:23:59.360Z,17.50
2019-01-28T05:25:01.404Z,19.40
2019-01-28T05:25:58.790Z,18.40
2019-01-28T05:26:58.622Z,18.20
2019-01-28T05:28:01.736Z,19.00
2019-01-28T05:28:59.002Z,19.60
2019-01-28T05:29:59.590Z,20.40
2019-01-28T05:31:01.404Z,19.50
2019-01-28T05:31:59.036Z,18.70
2019-01-28T05:32:58.950Z,17.30
2019-01-28T05:33:58.650Z,20.40
2019-01-28T05:34:58.916Z,20.60
2019-01-28T05:35:58.680Z,18.80
2019-01-28T05:36:58.826Z,18.00
2019-01-28T05:38:01.286Z,20.00
2019-01-28T05:38:58.612Z,18.70
2019-01-28T05:39:58.588Z,19.00
2019-01-28T05:40:58.542Z,16.80
2019-01-28T05:41:58.533Z,22.10
2019-01-28T05:42:58.527Z,17.00
2019-01-28T05:43:58.785Z,17.10
2019-01-28T05:44:58.557Z,16.80
2019-01-28T05:45:58.555Z,17.30
2019-01-28T05:46:58.506Z,19.60
2019-01-28T05:47:58.536Z,18.40
2019-01-28T05:48:58.727Z,19.40
2019-01-28T05:49:58.481Z,16.40
2019-01-28T05:52:01.321Z,18.90
2019-01-28T05:52:58.507Z,15.60
2019-01-28T05:53:58.485Z,17.00
2019-01-28T05:54:58.713Z,18.60
2019-01-28T05:55:58.744Z,18.30
2019-01-28T05:56:58.704Z,22.10
2019-01-28T05:57:58.425Z,17.60
2019-01-28T05:58:58.410Z,16.60
2019-01-28T05:59:58.454Z,19.90
2019-01-28T06:00:58.443Z,20.30
2019-01-28T06:01:58.425Z,17.30
2019-01-28T06:02:58.407Z,16.10
2019-01-28T06:03:58.379Z,20.90
2019-01-28T06:04:58.623Z,18.50
2019-01-28T06:05:58.413Z,16.40
2019-01-28T06:06:58.639Z,15.70
2019-01-28T06:07:58.632Z,18.10
2019-01-28T06:08:58.356Z,15.20
2019-01-28T06:09:58.615Z,21.50
2019-01-28T06:10:58.622Z,19.30
2019-01-28T06:11:58.373Z,16.30
2019-01-28T06:12:58.629Z,16.20
2019-01-28T06:13:58.591Z,18.90
2019-01-28T06:14:58.566Z,19.60
2019-01-28T06:15:58.319Z,16.60
2019-01-28T06:16:58.297Z,16.80
2019-01-28T06:17:58.597Z,16.90
2019-01-28T06:18:58.287Z,20.10
2019-01-28T06:19:58.281Z,15.30
2019-01-28T06:20:58.506Z,17.70
2019-01-28T06:21:58.536Z,15.90
2019-01-28T06:22:58.279Z,16.80
2019-01-28T06:23:58.253Z,17.00
2019-01-28T06:24:58.281Z,19.20
2019-01-28T06:25:58.534Z,18.20
2019-01-28T06:26:58.913Z,22.00
2019-01-28T06:27:58.226Z,17.60
2019-01-28T06:28:59.095Z,20.10
2019-01-28T06:29:58.215Z,18.60
2019-01-28T06:30:58.192Z,16.80
2019-01-28T06:31:58.228Z,18.80
2019-01-28T06:32:58.188Z,19.10
2019-01-28T06:33:58.212Z,22.80
2019-01-28T06:34:58.470Z,19.30
2019-01-28T06:35:58.189Z,23.80
2019-01-28T06:36:58.206Z,27.50
2019-01-28T06:37:58.153Z,25.80
2019-01-28T06:38:58.447Z,23.40
2019-01-28T06:39:58.445Z,21.80
2019-01-28T06:40:58.131Z,20.20
2019-01-28T06:41:58.366Z,19.60
2019-01-28T06:42:58.354Z,16.20
2019-01-28T06:43:58.157Z,18.20
2019-01-28T06:44:58.113Z,18.90
2019-01-28T06:45:58.404Z,14.60
2019-01-28T06:46:58.349Z,17.90
2019-01-28T06:47:58.091Z,24.00
2019-01-28T06:48:58.347Z,15.70
2019-01-28T06:49:58.334Z,27.30
2019-01-28T06:50:58.316Z,20.60
2019-01-28T06:51:58.057Z,15.30
2019-01-28T06:52:58.083Z,24.50
2019-01-28T06:53:58.291Z,19.60
2019-01-28T06:54:58.037Z,17.90
2019-01-28T06:55:58.327Z,20.00
2019-01-28T06:56:58.289Z,19.80
2019-01-28T06:57:58.044Z,18.60
2019-01-28T06:58:58.012Z,19.80
2019-01-28T06:59:57.992Z,21.30
2019-01-28T07:00:58.230Z,19.30
2019-01-28T07:01:58.261Z,24.00
2019-01-28T07:02:58.253Z,21.90
2019-01-28T07:03:58.261Z,17.30
2019-01-28T07:04:58.221Z,15.90
2019-01-28T07:05:58.225Z,17.10
2019-01-28T07:06:57.979Z,16.70
2019-01-28T07:07:58.210Z,19.70
2019-01-28T07:08:58.240Z,19.30
2019-01-28T07:09:57.971Z,23.90
2019-01-28T07:10:58.153Z,22.70
2019-01-28T07:11:57.909Z,21.90
2019-01-28T07:12:57.941Z,20.50
2019-01-28T07:13:58.167Z,19.30
2019-01-28T07:14:57.919Z,18.20
2019-01-28T07:15:57.876Z,14.30
2019-01-28T07:16:58.154Z,21.70
2019-01-28T07:17:57.863Z,19.70
2019-01-28T07:18:58.086Z,25.40
2019-01-28T07:19:58.084Z,19.60
2019-01-28T07:20:57.875Z,17.80
2019-01-28T07:21:58.100Z,21.20
2019-01-28T07:22:58.062Z,19.70
2019-01-28T07:23:57.864Z,19.50
2019-01-28T07:24:57.817Z,18.10
2019-01-28T07:25:57.853Z,19.80
2019-01-28T07:26:58.183Z,20.00
2019-01-28T07:27:58.114Z,17.90
2019-01-28T07:28:57.800Z,21.70
2019-01-28T07:29:57.810Z,19.40
2019-01-28T07:30:57.777Z,14.90
2019-01-28T07:31:58.064Z,22.20
2019-01-28T07:32:57.996Z,21.10
2019-01-28T07:33:57.799Z,19.20
2019-01-28T07:34:58.026Z,23.60
2019-01-28T07:36:57.757Z,15.30
2019-01-28T07:37:58.556Z,21.00
2019-01-28T07:38:57.721Z,20.90
2019-01-28T07:39:58.018Z,20.70
2019-01-28T07:40:57.704Z,21.60
2019-01-28T07:41:57.946Z,23.10
2019-01-28T07:42:57.694Z,19.20
2019-01-28T07:43:57.704Z,19.20
2019-01-28T07:44:57.937Z,12.80
2019-01-28T07:45:57.905Z,17.00
2019-01-28T07:46:57.955Z,19.10
2019-01-28T07:48:02.795Z,18.20
2019-01-28T07:48:57.945Z,19.80
2019-01-28T07:49:57.880Z,19.20
2019-01-28T07:50:57.663Z,18.00
2019-01-28T07:51:57.905Z,23.20
2019-01-28T07:52:57.845Z,18.10
2019-01-28T07:53:57.605Z,19.80
2019-01-28T07:54:57.831Z,18.30
2019-01-28T07:55:57.878Z,17.70
2019-01-28T07:56:57.854Z,21.20
2019-01-28T07:58:57.601Z,15.20
2019-01-28T07:59:57.607Z,18.30
2019-01-28T08:00:57.590Z,21.90
2019-01-28T08:01:57.828Z,19.10
2019-01-28T08:02:57.802Z,17.40
2019-01-28T08:03:57.839Z,14.50
2019-01-28T08:04:57.534Z,19.00
2019-01-28T08:05:57.765Z,19.20
2019-01-28T08:06:59.452Z,18.60
2019-01-28T08:07:57.792Z,17.90
2019-01-28T08:08:57.809Z,22.00
2019-01-28T08:09:57.741Z,16.60
2019-01-28T08:10:57.763Z,19.40
2019-01-28T08:11:57.767Z,16.30
2019-01-28T08:12:57.497Z,16.60
2019-01-28T08:13:57.707Z,19.80
2019-01-28T08:14:57.716Z,17.50
2019-01-28T08:15:57.690Z,16.00
2019-01-28T08:16:57.721Z,16.80
2019-01-28T08:17:57.462Z,17.40
2019-01-28T08:18:57.448Z,17.10
2019-01-28T08:19:57.433Z,14.20
2019-01-28T08:20:57.688Z,20.30
2019-01-28T08:21:57.446Z,19.60
2019-01-28T08:22:57.406Z,16.60
2019-01-28T08:23:57.395Z,20.00
2019-01-28T08:24:57.434Z,12.10
2019-01-28T08:25:57.415Z,18.50
2019-01-28T08:26:57.388Z,19.70
2019-01-28T08:27:57.673Z,13.00
2019-01-28T08:28:57.393Z,14.30
2019-01-28T08:29:57.389Z,16.30
2019-01-28T08:30:57.346Z,15.90
2019-01-28T08:31:57.573Z,22.00
2019-01-28T08:32:57.596Z,17.00
2019-01-28T08:33:57.587Z,19.50
2019-01-28T08:34:57.619Z,13.40
2019-01-28T08:35:57.320Z,15.80
2019-01-28T08:36:57.572Z,16.60
2019-01-28T08:37:57.562Z,14.40
2019-01-28T08:38:57.287Z,13.90
2019-01-28T08:39:57.327Z,16.70
2019-01-28T08:40:57.309Z,17.20
2019-01-28T08:41:57.302Z,18.00
2019-01-28T08:42:57.541Z,16.20
2019-01-28T08:43:57.527Z,17.00
2019-01-28T08:45:57.264Z,14.50
2019-01-28T08:46:57.513Z,14.60
2019-01-28T08:47:57.607Z,15.80
2019-01-28T08:48:57.592Z,19.10
2019-01-28T08:49:57.266Z,18.00
2019-01-28T08:50:57.622Z,16.40
2019-01-28T08:51:57.200Z,15.00
2019-01-28T08:52:57.543Z,16.90
2019-01-28T08:53:57.193Z,21.70
2019-01-28T08:54:57.538Z,14.90
2019-01-28T08:55:57.530Z,19.10
2019-01-28T08:56:57.168Z,18.40
2019-01-28T08:57:57.193Z,14.90
2019-01-28T08:58:57.408Z,17.10
2019-01-28T08:59:57.442Z,25.10
2019-01-28T09:00:57.158Z,17.30
2019-01-28T09:01:57.424Z,13.80
2019-01-28T09:02:57.428Z,15.90
2019-01-28T09:03:57.154Z,18.70
2019-01-28T09:04:57.368Z,17.10
2019-01-28T09:05:57.103Z,16.70
2019-01-28T09:06:57.090Z,18.70
2019-01-28T09:07:57.354Z,21.50
2019-01-28T09:08:57.328Z,18.20
2019-01-28T09:09:57.359Z,17.10
2019-01-28T09:10:57.330Z,19.20
2019-01-28T09:11:57.090Z,21.10
2019-01-28T09:12:57.042Z,16.00
2019-01-28T09:13:57.301Z,23.00
2019-01-28T09:14:57.271Z,21.10
2019-01-28T09:15:57.299Z,21.30
2019-01-28T09:16:57.289Z,16.90
2019-01-28T09:17:57.392Z,21.50
2019-01-28T09:18:57.033Z,21.60
2019-01-28T09:19:58.960Z,18.10
2019-01-28T09:20:57.380Z,18.40
2019-01-28T09:21:57.393Z,21.10
2019-01-28T09:22:57.009Z,18.80
2019-01-28T09:23:56.973Z,18.10
2019-01-28T09:24:56.988Z,19.60
2019-01-28T09:25:56.979Z,21.10
2019-01-28T09:26:57.198Z,16.80
2019-01-28T09:27:57.194Z,19.10
2019-01-28T09:28:56.946Z,18.40
2019-01-28T09:29:56.926Z,16.10
2019-01-28T09:30:56.955Z,19.30
2019-01-28T09:31:56.920Z,20.50
2019-01-28T09:32:57.143Z,20.80
2019-01-28T09:33:56.929Z,18.30
2019-01-28T09:34:57.195Z,18.30
2019-01-28T09:35:57.179Z,18.00
2019-01-28T09:36:57.245Z,25.30
2019-01-28T09:37:57.252Z,22.80
2019-01-28T09:38:57.248Z,20.60
2019-01-28T09:39:57.272Z,22.10
2019-01-28T09:40:57.200Z,22.40
2019-01-28T09:41:56.870Z,22.40
2019-01-28T09:42:57.183Z,23.80
2019-01-28T09:43:56.868Z,20.70
2019-01-28T09:44:57.238Z,22.60
2019-01-28T09:45:57.071Z,24.00
2019-01-28T09:46:56.811Z,16.90
2019-01-28T09:47:56.833Z,21.00
2019-01-28T09:48:56.808Z,25.20
2019-01-28T09:49:57.044Z,27.00
2019-01-28T09:50:56.774Z,26.10
2019-01-28T09:51:56.776Z,22.70
2019-01-28T09:52:56.991Z,26.20
2019-01-28T09:53:57.024Z,27.60
2019-01-28T09:54:57.012Z,24.90
2019-01-28T09:55:56.790Z,26.60
2019-01-28T09:56:57.002Z,25.60
2019-01-28T09:57:56.999Z,21.50
2019-01-28T09:58:56.750Z,26.10
2019-01-28T09:59:56.974Z,29.30
2019-01-28T10:00:56.738Z,28.50
2019-01-28T10:01:56.949Z,26.50
2019-01-28T10:02:56.997Z,24.60
2019-01-28T10:03:56.733Z,31.90
2019-01-28T10:04:56.905Z,28.90
2019-01-28T10:05:56.953Z,27.40
2019-01-28T10:06:56.687Z,28.80
2019-01-28T10:07:56.654Z,30.40
2019-01-28T10:08:56.640Z,29.50
2019-01-28T10:09:56.674Z,25.10
2019-01-28T10:11:56.658Z,24.40
2019-01-28T10:12:56.622Z,26.90
2019-01-28T10:13:56.896Z,27.80
2019-01-28T10:14:56.885Z,29.60
2019-01-28T10:15:56.843Z,25.90
2019-01-28T10:16:56.585Z,24.30
2019-01-28T10:17:56.618Z,26.40
2019-01-28T10:18:56.840Z,27.10
2019-01-28T10:19:56.813Z,28.50
2019-01-28T10:20:56.566Z,27.30
2019-01-28T10:21:56.556Z,28.20
2019-01-28T10:22:56.544Z,28.90
2019-01-28T10:23:56.786Z,28.60
2019-01-28T10:24:56.572Z,27.60
2019-01-28T10:25:57.823Z,28.90
2019-01-28T10:26:56.752Z,27.50
2019-01-28T10:27:56.754Z,27.80
2019-01-28T10:28:56.787Z,24.30
2019-01-28T10:29:56.768Z,25.20
2019-01-28T10:30:56.768Z,30.10
2019-01-28T10:31:56.747Z,27.70
2019-01-28T10:32:56.527Z,25.50
2019-01-28T10:33:56.521Z,30.80
2019-01-28T10:34:56.726Z,33.70
2019-01-28T10:35:56.709Z,28.90
2019-01-28T10:36:56.488Z,29.50
2019-01-28T10:37:56.445Z,32.60
2019-01-28T10:38:56.476Z,36.20
2019-01-28T10:39:56.428Z,31.40
2019-01-28T10:40:56.419Z,37.40
2019-01-28T10:41:56.687Z,41.10
2019-01-28T10:42:56.702Z,44.80
2019-01-28T10:43:56.406Z,41.60
2019-01-28T10:44:56.424Z,38.80
2019-01-28T10:45:56.644Z,43.50
2019-01-28T10:46:56.659Z,37.70
2019-01-28T10:48:00.717Z,44.60
2019-01-28T10:48:56.403Z,46.60
2019-01-28T10:49:56.361Z,43.40
2019-01-28T10:50:56.354Z,45.90
2019-01-28T10:51:58.127Z,52.20
2019-01-28T10:52:56.418Z,45.40
2019-01-28T10:53:56.372Z,66.10
2019-01-28T10:54:56.590Z,52.20
2019-01-28T10:55:56.353Z,39.90
2019-01-28T10:56:56.550Z,55.00
2019-01-28T10:57:56.550Z,48.90
2019-01-28T10:58:56.593Z,57.60
2019-01-28T10:59:56.591Z,43.60
2019-01-28T11:00:56.585Z,51.40
2019-01-28T11:01:56.278Z,47.20
2019-01-28T11:02:56.513Z,47.90
2019-01-28T11:03:56.255Z,47.20
2019-01-28T11:04:56.515Z,43.00
2019-01-28T11:05:56.488Z,45.90
2019-01-28T11:06:56.535Z,41.30
2019-01-28T11:07:56.505Z,49.50
2019-01-28T11:08:56.502Z,51.30
2019-01-28T11:09:56.499Z,42.20
2019-01-28T11:10:56.317Z,49.80
2019-01-28T11:11:56.321Z,55.90
2019-01-28T11:12:56.302Z,53.60
2019-01-28T11:13:56.269Z,47.60
2019-01-28T11:14:56.262Z,53.10
2019-01-28T11:15:56.558Z,48.50
2019-01-28T11:16:56.464Z,49.00
2019-01-28T11:17:56.537Z,53.50
2019-01-28T11:19:56.423Z,48.40
2019-01-28T11:20:56.286Z,46.40
2019-01-28T11:21:56.167Z,54.00
2019-01-28T11:22:56.421Z,51.40
2019-01-28T11:23:56.413Z,49.70
2019-01-28T11:24:56.414Z,51.90
2019-01-28T11:25:56.117Z,48.40
2019-01-28T11:26:56.151Z,55.70
2019-01-28T11:27:56.381Z,48.90
2019-01-28T11:28:56.139Z,49.50
2019-01-28T11:29:56.355Z,51.00
2019-01-28T11:30:56.122Z,51.70
2019-01-28T11:31:56.084Z,52.10
2019-01-28T11:32:56.362Z,51.50
2019-01-28T11:33:56.162Z,50.40
2019-01-28T11:34:56.190Z,52.30
2019-01-28T11:36:04.454Z,50.10
2019-01-28T11:36:56.028Z,48.60
2019-01-28T11:37:56.275Z,53.00
2019-01-28T11:38:56.424Z,47.50
2019-01-28T11:39:56.143Z,52.00
2019-01-28T11:40:56.102Z,49.40
2019-01-28T11:41:56.151Z,47.40
2019-01-28T11:42:56.282Z,51.20
2019-01-28T11:43:56.064Z,53.00
2019-01-28T11:45:56.260Z,56.60
2019-01-28T11:46:56.341Z,56.50
2019-01-28T11:47:55.994Z,55.20
2019-01-28T11:48:56.039Z,52.70
2019-01-28T11:49:55.972Z,50.10
2019-01-28T11:50:56.413Z,50.10
2019-01-28T11:51:55.961Z,51.20
2019-01-28T11:52:56.203Z,53.20
2019-01-28T11:53:56.180Z,50.70
2019-01-28T11:54:56.293Z,54.80
2019-01-28T11:55:55.935Z,48.60
2019-01-28T11:56:55.923Z,53.90
2019-01-28T11:57:56.311Z,54.70
2019-01-28T11:58:55.923Z,54.10
2019-01-28T11:59:55.872Z,49.70
2019-01-28T12:00:56.268Z,49.30
2019-01-28T12:01:56.246Z,54.90
2019-01-28T12:02:55.848Z,48.10
2019-01-28T12:03:56.104Z,55.60
2019-01-28T12:04:56.090Z,46.40
2019-01-28T12:05:55.833Z,54.90
2019-01-28T12:06:56.097Z,52.30
2019-01-28T12:07:56.073Z,61.10
2019-01-28T12:08:56.088Z,56.50
2019-01-28T12:09:55.840Z,68.80
2019-01-28T12:10:56.111Z,57.20
2019-01-28T12:11:56.110Z,57.30
2019-01-28T12:12:55.799Z,63.70
2019-01-28T12:13:55.812Z,53.30
2019-01-28T12:14:56.010Z,56.80
2019-01-28T12:15:55.771Z,61.80
2019-01-28T12:16:56.032Z,61.10
2019-01-28T12:17:55.760Z,58.90
2019-01-28T12:18:55.743Z,58.20
2019-01-28T12:19:55.740Z,56.10
2019-01-28T12:20:55.752Z,57.70
2019-01-28T12:21:56.017Z,56.30
2019-01-28T12:22:55.714Z,55.50
2019-01-28T12:23:55.748Z,56.90
2019-01-28T12:24:55.964Z,57.70
2019-01-28T12:25:55.726Z,58.80
2019-01-28T12:26:55.923Z,54.90
2019-01-28T12:27:55.678Z,56.40
2019-01-28T12:28:55.905Z,58.60
2019-01-28T12:29:56.044Z,56.90
2019-01-28T12:30:55.653Z,59.90
2019-01-28T12:31:56.122Z,57.90
2019-01-28T12:32:55.674Z,55.80
2019-01-28T12:33:56.041Z,63.10
2019-01-28T12:34:56.003Z,57.40
2019-01-28T12:35:55.654Z,54.50
2019-01-28T12:36:55.617Z,59.20
2019-01-28T12:37:55.852Z,53.60
2019-01-28T12:38:55.599Z,52.80
2019-01-28T12:39:55.874Z,63.00
2019-01-28T12:40:55.884Z,48.30
2019-01-28T12:41:55.614Z,56.10
2019-01-28T12:42:55.802Z,62.20
2019-01-28T12:43:55.597Z,57.60
2019-01-28T12:44:55.827Z,65.90
2019-01-28T12:45:55.598Z,58.00
2019-01-28T12:46:55.555Z,59.40
2019-01-28T12:47:55.527Z,58.40
2019-01-28T12:48:55.838Z,62.30
2019-01-28T12:49:55.821Z,60.30
2019-01-28T12:50:55.813Z,65.90
2019-01-28T12:51:55.524Z,63.00
2019-01-28T12:52:55.502Z,57.20
2019-01-28T12:53:55.786Z,59.80
2019-01-28T12:54:55.525Z,60.00
2019-01-28T12:55:55.485Z,64.00
2019-01-28T12:56:55.517Z,59.70
2019-01-28T12:57:55.706Z,62.10
2019-01-28T12:58:55.726Z,69.50
2019-01-28T12:59:55.729Z,61.70
2019-01-28T13:00:55.543Z,55.00
2019-01-28T13:01:55.441Z,64.00